Time;durP1;ratioP1;P1;durP2;ratioP2;P2;SDS_P1;SDS_P2;PMS_P1;PMS_P2;Temp;Humidity;BMP_temperature;BMP_pressure;BME280_temperature;BME280_humidity;BME280_pressure;Samples;Min_cycle;Max_cycle;Signal;HPM_P1;HPM_P2
2021/06/15 00:01:12;;;;;;;6.60;4.00;;;19.10;99.90;;;;;;4998685;28;20125;-80
2021/06/15 00:03:38;;;;;;;5.43;4.15;;;19.10;99.90;;;;;;5032637;28;20045;-80
2021/06/15 00:06:07;;;;;;;8.50;4.25;;;19.00;99.90;;;;;;5034077;28;20021;-80
2021/06/15 00:08:33;;;;;;;7.68;4.10;;;19.00;99.90;;;;;;5034375;28;20037;-81
2021/06/15 00:10:58;;;;;;;5.68;3.50;;;19.00;99.90;;;;;;5034182;28;20074;-80
2021/06/15 00:13:27;;;;;;;5.70;4.18;;;19.00;99.90;;;;;;5015728;28;20021;-81
2021/06/15 00:15:53;;;;;;;7.15;4.00;;;19.00;99.90;;;;;;5016331;28;20025;-81
2021/06/15 00:18:19;;;;;;;5.47;3.67;;;18.90;99.90;;;;;;5033870;28;20052;-80
2021/06/15 00:20:49;;;;;;;4.93;3.88;;;18.90;99.90;;;;;;5016289;28;20385;-80
2021/06/15 00:23:15;;;;;;;4.82;3.55;;;18.90;99.90;;;;;;5033732;28;20108;-80
2021/06/15 00:25:41;;;;;;;6.10;3.72;;;18.90;99.90;;;;;;5034198;28;20064;-80
2021/06/15 00:28:09;;;;;;;8.15;3.97;;;18.80;99.90;;;;;;5032543;28;20021;-80
2021/06/15 00:30:35;;;;;;;7.10;4.25;;;18.80;99.90;;;;;;5033744;28;20026;-81
2021/06/15 00:33:01;;;;;;;6.60;3.95;;;18.80;99.90;;;;;;5032019;28;20033;-81
2021/06/15 00:35:27;;;;;;;5.13;3.67;;;18.80;99.90;;;;;;5015788;28;20032;-81
2021/06/15 00:37:53;;;;;;;5.88;3.72;;;18.70;99.90;;;;;;5033574;28;20025;-80
2021/06/15 00:40:19;;;;;;;5.53;3.88;;;18.70;99.90;;;;;;5009340;28;20037;-81
2021/06/15 00:42:46;;;;;;;6.53;3.95;;;18.60;99.90;;;;;;5002617;28;20037;-80
2021/06/15 00:45:18;;;;;;;5.70;3.33;;;18.60;99.90;;;;;;5026426;28;20010;-81
2021/06/15 00:47:47;;;;;;;5.90;3.70;;;18.60;99.90;;;;;;5017478;28;20034;-80
2021/06/15 00:50:13;;;;;;;7.75;3.65;;;18.60;99.90;;;;;;4998136;28;20030;-81
2021/06/15 00:52:39;;;;;;;4.72;3.50;;;18.50;99.90;;;;;;4997215;28;20470;-81
2021/06/15 00:55:05;;;;;;;5.32;3.63;;;18.50;99.90;;;;;;5014039;28;20075;-81
2021/06/15 00:57:33;;;;;;;4.75;3.13;;;18.50;99.90;;;;;;4996412;28;20561;-82
2021/06/15 01:00:00;;;;;;;5.13;3.10;;;18.40;99.90;;;;;;4996518;28;20030;-82
2021/06/15 01:02:28;;;;;;;6.63;4.00;;;18.40;99.90;;;;;;5013434;28;20132;-82
2021/06/15 01:05:00;;;;;;;6.50;3.20;;;18.40;99.90;;;;;;5014533;28;20026;-82
2021/06/15 01:07:28;;;;;;;5.25;3.65;;;18.30;99.90;;;;;;5017471;28;20030;-82
2021/06/15 01:10:00;;;;;;;5.70;3.70;;;18.30;99.90;;;;;;5017874;28;20108;-82
2021/06/15 01:13:01;;;;;;;5.57;3.38;;;18.30;99.90;;;;;;5000205;28;20033;-81
2021/06/15 01:15:50;;;;;;;4.85;3.30;;;18.30;99.90;;;;;;5000235;28;20111;-81
2021/06/15 01:18:19;;;;;;;4.78;3.20;;;18.20;99.90;;;;;;5018167;28;20062;-82
2021/06/15 01:20:56;;;;;;;6.60;3.47;;;18.10;99.90;;;;;;5000062;28;20053;-81
2021/06/15 01:23:48;;;;;;;5.50;3.30;;;18.10;99.90;;;;;;5017755;28;20037;-82
2021/06/15 01:26:20;;;;;;;4.97;3.17;;;18.10;99.90;;;;;;5017682;28;20022;-82
2021/06/15 01:28:51;;;;;;;6.50;3.17;;;18.10;99.90;;;;;;5000159;28;20061;-82
2021/06/15 01:31:43;;;;;;;5.05;3.10;;;18.10;99.90;;;;;;5017422;28;20533;-82
2021/06/15 01:34:14;;;;;;;6.10;3.00;;;18.10;99.90;;;;;;5017464;28;20076;-82
2021/06/15 01:36:46;;;;;;;5.28;3.00;;;18.00;99.90;;;;;;5017597;28;20022;-82
2021/06/15 01:39:21;;;;;;;4.78;3.10;;;18.00;99.90;;;;;;5017375;28;20061;-82
2021/06/15 01:42:16;;;;;;;6.18;3.47;;;18.00;99.90;;;;;;5000064;28;20413;-82
2021/06/15 01:44:46;;;;;;;5.72;2.67;;;18.00;99.90;;;;;;5006400;28;20073;-81
2021/06/15 01:47:13;;;;;;;5.28;3.33;;;17.90;99.90;;;;;;5016769;28;20029;-81
2021/06/15 01:49:45;;;;;;;5.57;2.67;;;17.90;99.90;;;;;;4999142;28;20084;-82
2021/06/15 01:52:12;;;;;;;4.25;3.05;;;17.90;99.90;;;;;;4999252;28;20463;-81
2021/06/15 01:54:41;;;;;;;5.70;2.85;;;17.90;99.90;;;;;;4998852;28;20033;-81
2021/06/15 01:57:08;;;;;;;3.65;2.38;;;17.90;99.90;;;;;;4983520;28;20022;-81
2021/06/15 01:59:38;;;;;;;5.93;2.80;;;17.80;99.90;;;;;;5017623;28;20037;-82
2021/06/15 02:02:04;;;;;;;4.45;2.78;;;17.90;99.90;;;;;;5016599;28;20525;-81
2021/06/15 02:04:34;;;;;;;6.82;3.60;;;17.80;99.90;;;;;;4999358;28;20470;-81
2021/06/15 02:07:00;;;;;;;6.72;2.90;;;17.80;99.90;;;;;;4999250;28;20022;-81
2021/06/15 02:09:28;;;;;;;5.38;3.20;;;17.80;99.90;;;;;;4998536;28;20188;-81
2021/06/15 02:11:57;;;;;;;4.40;2.90;;;17.80;99.90;;;;;;5016245;28;20037;-81
2021/06/15 02:14:25;;;;;;;4.88;2.92;;;17.80;99.90;;;;;;5016882;28;20062;-81
2021/06/15 02:16:56;;;;;;;5.07;3.25;;;17.80;99.90;;;;;;5016724;28;20022;-81
2021/06/15 02:19:24;;;;;;;5.30;3.70;;;17.80;99.90;;;;;;4999644;28;20034;-81
2021/06/15 02:21:55;;;;;;;4.60;3.30;;;17.70;99.90;;;;;;5016068;28;20111;-81
2021/06/15 02:24:26;;;;;;;6.40;3.60;;;17.70;99.90;;;;;;5016219;28;20032;-81
2021/06/15 02:26:54;;;;;;;4.43;2.75;;;17.70;99.90;;;;;;5016529;28;20409;-81
2021/06/15 02:29:19;;;;;;;4.38;2.92;;;17.70;99.90;;;;;;5017019;28;20032;-81
2021/06/15 02:32:12;;;;;;;5.32;3.40;;;17.70;99.90;;;;;;4985589;28;20034;-81
2021/06/15 02:34:46;;;;;;;4.35;2.80;;;17.70;99.90;;;;;;5030550;28;20021;-81
2021/06/15 02:37:20;;;;;;;4.72;2.92;;;17.70;99.90;;;;;;5036750;28;20029;-82
2021/06/15 02:39:46;;;;;;;6.80;2.67;;;17.70;99.90;;;;;;5032874;28;20470;-81
2021/06/15 02:42:15;;;;;;;6.63;3.60;;;17.70;99.90;;;;;;5001263;28;20124;-81
2021/06/15 02:44:43;;;;;;;5.97;3.20;;;17.70;99.90;;;;;;5016499;28;20022;-82
2021/06/15 02:47:11;;;;;;;4.80;2.95;;;17.70;99.90;;;;;;4998379;28;20040;-82
2021/06/15 02:49:47;;;;;;;5.20;2.67;;;17.80;99.90;;;;;;5030102;28;20042;-81
2021/06/15 02:52:24;;;;;;;4.15;2.67;;;17.80;99.90;;;;;;5004590;28;20030;-82
2021/06/15 02:55:05;;;;;;;3.47;2.50;;;17.90;99.90;;;;;;4998480;28;20050;-82
2021/06/15 02:57:30;;;;;;;5.03;2.80;;;18.00;99.90;;;;;;4998634;28;20033;-82
2021/06/15 02:59:57;;;;;;;3.53;2.50;;;17.90;99.90;;;;;;5015961;28;20382;-82
2021/06/15 03:02:25;;;;;;;4.18;2.25;;;18.00;99.90;;;;;;4998106;28;20145;-82
2021/06/15 03:04:51;;;;;;;5.22;2.60;;;17.90;99.90;;;;;;4997898;28;20026;-82
2021/06/15 03:07:17;;;;;;;4.97;3.00;;;17.90;99.90;;;;;;4982022;28;20524;-82
2021/06/15 03:09:44;;;;;;;4.95;2.60;;;17.90;99.90;;;;;;5015481;28;20410;-82
2021/06/15 03:12:19;;;;;;;4.20;2.33;;;17.90;99.90;;;;;;4997618;28;20142;-82
2021/06/15 03:14:53;;;;;;;4.70;2.60;;;17.90;99.90;;;;;;5015254;28;20108;-82
2021/06/15 03:17:21;;;;;;;5.32;2.70;;;17.90;99.90;;;;;;5015496;28;20022;-81
2021/06/15 03:20:07;;;;;;;5.25;2.65;;;17.80;99.90;;;;;;4998018;28;20555;-81
2021/06/15 03:23:07;;;;;;;4.85;2.40;;;17.80;99.90;;;;;;4997806;28;20036;-82
2021/06/15 03:25:34;;;;;;;5.15;2.47;;;17.80;99.90;;;;;;5015462;28;20030;-81
2021/06/15 03:28:17;;;;;;;4.35;2.22;;;17.80;99.90;;;;;;4997105;28;20022;-81
2021/06/15 03:30:45;;;;;;;5.20;2.25;;;17.80;99.90;;;;;;5015476;28;20049;-82
2021/06/15 03:33:15;;;;;;;3.67;2.00;;;17.80;99.90;;;;;;4981273;28;20386;-81
2021/06/15 03:35:43;;;;;;;5.05;2.47;;;17.80;99.90;;;;;;4997770;28;20057;-82
2021/06/15 03:38:10;;;;;;;4.03;2.30;;;17.80;99.90;;;;;;4997457;28;20363;-82
2021/06/15 03:40:39;;;;;;;4.70;2.20;;;17.90;99.90;;;;;;5015213;28;20065;-81
2021/06/15 03:43:08;;;;;;;3.83;2.35;;;17.80;99.90;;;;;;5015265;28;20030;-81
2021/06/15 03:45:41;;;;;;;4.03;1.95;;;17.80;99.90;;;;;;4997321;28;20022;-82
2021/06/15 03:48:12;;;;;;;4.32;2.00;;;17.90;99.90;;;;;;4997519;28;20374;-82
2021/06/15 03:50:39;;;;;;;5.00;2.13;;;17.90;99.90;;;;;;4997253;28;20034;-82
2021/06/15 03:53:09;;;;;;;5.82;2.22;;;17.80;99.90;;;;;;4997450;28;20073;-82
2021/06/15 03:55:37;;;;;;;4.05;2.13;;;17.80;99.90;;;;;;5014926;28;20391;-82
2021/06/15 03:58:06;;;;;;;4.38;2.08;;;17.80;99.90;;;;;;5014690;28;20057;-82
2021/06/15 04:00:35;;;;;;;3.00;1.90;;;17.80;99.90;;;;;;4997225;28;20029;-82
2021/06/15 04:03:04;;;;;;;5.22;2.08;;;17.80;99.90;;;;;;4996680;28;20129;-82
2021/06/15 04:05:33;;;;;;;2.38;1.55;;;17.80;99.90;;;;;;5014614;28;20021;-82
2021/06/15 04:08:02;;;;;;;4.78;1.70;;;17.80;99.90;;;;;;4997022;28;20061;-83
2021/06/15 04:10:29;;;;;;;3.08;1.65;;;17.80;99.90;;;;;;4997307;28;20426;-82
2021/06/15 04:12:56;;;;;;;4.75;1.50;;;17.80;99.90;;;;;;4997022;28;20427;-83
2021/06/15 04:15:25;;;;;;;3.25;1.50;;;17.80;99.90;;;;;;5014020;28;20022;-82
2021/06/15 04:17:53;;;;;;;2.85;1.60;;;17.80;99.90;;;;;;5014636;28;20022;-82
2021/06/15 04:20:25;;;;;;;3.40;1.65;;;17.80;99.90;;;;;;5017966;28;20489;-82
2021/06/15 04:22:56;;;;;;;2.00;1.27;;;17.90;99.90;;;;;;5013674;28;20045;-82
2021/06/15 04:25:29;;;;;;;2.47;1.30;;;17.90;99.90;;;;;;5007561;28;20342;-81
2021/06/15 04:27:55;;;;;;;3.78;1.60;;;17.90;99.90;;;;;;4996851;28;20474;-82
2021/06/15 04:30:24;;;;;;;5.05;1.60;;;17.90;99.90;;;;;;5014770;28;20410;-82
2021/06/15 04:32:55;;;;;;;5.70;2.13;;;18.00;99.90;;;;;;4997403;28;20030;-82
2021/06/15 04:35:42;;;;;;;2.50;1.30;;;18.00;99.90;;;;;;4996786;28;20419;-83
2021/06/15 04:38:22;;;;;;;2.33;1.10;;;18.00;99.50;;;;;;5008795;28;20116;-82
2021/06/15 04:41:00;;;;;;;2.72;1.20;;;18.00;99.60;;;;;;5018114;28;20036;-82
2021/06/15 04:43:30;;;;;;;2.97;1.05;;;18.00;99.50;;;;;;5011771;28;20494;-82
2021/06/15 04:46:20;;;;;;;1.98;0.90;;;18.00;99.40;;;;;;4994193;28;20057;-82
2021/06/15 04:48:53;;;;;;;2.33;0.90;;;18.00;99.30;;;;;;5011951;28;20041;-82
2021/06/15 04:51:23;;;;;;;2.13;1.00;;;18.00;99.30;;;;;;5011596;28;20420;-82
2021/06/15 04:53:58;;;;;;;2.35;0.80;;;18.00;99.20;;;;;;5000347;28;20005;-82
2021/06/15 04:56:26;;;;;;;3.35;0.80;;;17.90;99.10;;;;;;4990731;28;20064;-81
2021/06/15 04:58:54;;;;;;;2.42;0.90;;;17.90;99.00;;;;;;5012280;28;20056;-81
2021/06/15 05:01:20;;;;;;;1.02;0.60;;;17.90;98.90;;;;;;5011369;28;20053;-81
2021/06/15 05:03:46;;;;;;;1.10;0.70;;;17.90;98.90;;;;;;5012201;28;20054;-82
2021/06/15 05:06:16;;;;;;;2.10;0.70;;;17.90;98.80;;;;;;4994475;28;20022;-81
2021/06/15 05:08:54;;;;;;;2.33;0.70;;;17.90;98.70;;;;;;5011384;28;20364;-82
2021/06/15 05:11:23;;;;;;;2.88;0.73;;;17.90;98.70;;;;;;5011147;28;20525;-81
2021/06/15 05:13:52;;;;;;;2.38;0.65;;;17.90;98.60;;;;;;4993580;28;20014;-81
2021/06/15 05:16:24;;;;;;;2.58;0.60;;;17.90;98.50;;;;;;5016588;28;20038;-81
2021/06/15 05:18:49;;;;;;;1.65;0.68;;;17.90;98.40;;;;;;5011652;28;20033;-81
2021/06/15 05:21:57;;;;;;;1.98;0.65;;;18.00;98.30;;;;;;5011956;28;20037;-81
2021/06/15 05:24:28;;;;;;;3.63;0.70;;;17.90;98.20;;;;;;4992822;28;20030;-81
2021/06/15 05:26:54;;;;;;;2.80;0.85;;;17.90;98.30;;;;;;5011590;28;20028;-81
2021/06/15 05:29:22;;;;;;;2.70;0.73;;;17.90;98.20;;;;;;5010971;28;20441;-81
2021/06/15 05:31:48;;;;;;;3.15;0.80;;;17.90;98.00;;;;;;5022323;28;20129;-81
2021/06/15 05:34:13;;;;;;;2.72;0.70;;;18.00;98.00;;;;;;5004540;28;20030;-81
2021/06/15 05:36:42;;;;;;;1.98;0.68;;;17.90;97.80;;;;;;4988288;28;20081;-82
2021/06/15 05:39:08;;;;;;;2.05;0.63;;;18.00;97.80;;;;;;5000402;28;20034;-82
2021/06/15 05:41:33;;;;;;;2.70;0.60;;;18.00;97.80;;;;;;5027321;28;20026;-82
2021/06/15 05:43:59;;;;;;;3.72;0.70;;;18.00;97.70;;;;;;5018093;28;20061;-82
2021/06/15 05:46:25;;;;;;;1.65;0.60;;;18.00;97.60;;;;;;5022075;28;20129;-81
2021/06/15 05:48:55;;;;;;;3.42;0.50;;;18.20;97.60;;;;;;5016195;28;20025;-81
2021/06/15 05:51:20;;;;;;;3.17;0.70;;;18.30;97.50;;;;;;5012871;28;20041;-81
2021/06/15 05:53:46;;;;;;;1.95;0.65;;;18.40;97.30;;;;;;5022360;28;20022;-81
2021/06/15 05:56:12;;;;;;;1.67;0.80;;;18.50;97.20;;;;;;4999223;28;20032;-81
2021/06/15 05:58:38;;;;;;;2.60;0.70;;;18.60;97.00;;;;;;5016531;28;20454;-81
2021/06/15 06:01:03;;;;;;;3.08;0.70;;;18.60;96.90;;;;;;5016215;28;20026;-81
2021/06/15 06:03:37;;;;;;;2.28;0.68;;;18.60;96.90;;;;;;5016112;28;20089;-81
2021/06/15 06:09:01;;;;;;;2.83;0.57;;;18.60;97.00;;;;;;5018472;28;20391;-81
2021/06/15 06:11:27;;;;;;;4.85;0.90;;;18.60;96.90;;;;;;5010015;28;20037;-80
2021/06/15 06:13:57;;;;;;;2.38;0.63;;;18.60;96.90;;;;;;5033582;28;20038;-80
2021/06/15 06:16:27;;;;;;;3.03;0.68;;;18.70;96.80;;;;;;4998265;28;20421;-81
2021/06/15 06:19:14;;;;;;;1.30;0.43;;;18.70;96.70;;;;;;5016172;28;20163;-81
2021/06/15 06:21:42;;;;;;;3.78;0.80;;;18.80;96.50;;;;;;5001245;28;20099;-81
2021/06/15 06:24:17;;;;;;;1.52;0.60;;;18.90;96.30;;;;;;5015858;28;20061;-81
2021/06/15 06:27:03;;;;;;;2.42;0.45;;;18.90;96.20;;;;;;4998810;28;20021;-82
2021/06/15 06:29:38;;;;;;;2.22;0.55;;;18.90;96.20;;;;;;5009757;28;20087;-81
2021/06/15 06:32:13;;;;;;;2.20;0.60;;;18.90;96.20;;;;;;5026667;28;20145;-81
2021/06/15 06:35:12;;;;;;;;;;;;;;;;;;;;;
2021/06/15 06:37:43;;;;;;;3.13;0.60;;;18.80;96.20;;;;;;5009826;28;20025;-80
2021/06/15 06:40:17;;;;;;;3.50;0.80;;;18.80;96.20;;;;;;4982651;28;20042;-80
2021/06/15 06:43:11;;;;;;;;;;;;;;;;;;;;;
2021/06/15 06:45:52;;;;;;;2.63;0.63;;;18.90;96.10;;;;;;4994746;28;20030;-81
2021/06/15 06:48:52;;;;;;;3.25;0.70;;;18.90;95.90;;;;;;4979041;28;20033;-80
2021/06/15 06:51:23;;;;;;;3.60;0.80;;;19.00;95.80;;;;;;4995676;28;20491;-81
2021/06/15 06:53:55;;;;;;;2.28;0.60;;;19.10;95.60;;;;;;5001588;28;20029;-81
2021/06/15 06:56:36;;;;;;;3.10;0.50;;;19.20;95.60;;;;;;5024115;28;20014;-80
2021/06/15 06:59:16;;;;;;;2.13;0.50;;;19.20;95.40;;;;;;4996788;28;20034;-80
2021/06/15 07:01:44;;;;;;;5.68;0.82;;;19.40;95.30;;;;;;4998379;28;20030;-80
2021/06/15 07:04:09;;;;;;;2.30;0.63;;;19.50;95.20;;;;;;4997606;28;20037;-81
2021/06/15 07:06:35;;;;;;;1.63;0.43;;;19.70;95.10;;;;;;5022161;28;20394;-81
2021/06/15 07:09:01;;;;;;;3.83;0.60;;;19.70;94.80;;;;;;5001537;28;20679;-81
2021/06/15 07:11:29;;;;;;;2.38;0.73;;;19.70;94.30;;;;;;5015138;28;20068;-81
2021/06/15 07:13:55;;;;;;;2.58;0.50;;;19.80;94.30;;;;;;5014837;28;20030;-81
2021/06/15 07:16:21;;;;;;;1.70;0.68;;;19.90;94.10;;;;;;4996412;28;20033;-82
2021/06/15 07:18:47;;;;;;;2.00;0.52;;;20.00;94.10;;;;;;5020803;28;20104;-81
2021/06/15 07:21:13;;;;;;;3.20;0.73;;;20.10;94.10;;;;;;4997223;28;20057;-81
2021/06/15 07:23:51;;;;;;;;;;;;;;;;;;;;;
2021/06/15 07:26:23;;;;;;;2.80;0.65;;;20.00;94.00;;;;;;5014942;28;20028;-82
2021/06/15 07:28:50;;;;;;;2.08;0.50;;;20.00;93.80;;;;;;4996968;28;20022;-81
2021/06/15 07:31:18;;;;;;;2.05;0.52;;;20.00;93.90;;;;;;4996815;28;20429;-81
2021/06/15 07:33:47;;;;;;;1.83;0.52;;;20.00;93.80;;;;;;5014898;28;20025;-82
2021/06/15 07:36:37;;;;;;;4.18;0.60;;;20.10;93.50;;;;;;5014121;28;20030;-82
2021/06/15 07:39:18;;;;;;;3.13;0.50;;;20.00;93.50;;;;;;4961199;28;20125;-82
2021/06/15 07:41:50;;;;;;;2.60;0.80;;;20.00;93.20;;;;;;4982260;28;20030;-82
2021/06/15 07:44:18;;;;;;;3.15;0.50;;;19.90;93.10;;;;;;5014064;28;20026;-82
2021/06/15 07:48:01;;;;;;;;;;;;;;;;;;;;;
2021/06/15 07:53:42;;;;;;;2.63;0.50;;;20.20;92.80;;;;;;4967971;28;20034;-82
2021/06/15 07:56:13;;;;;;;2.67;0.73;;;20.40;92.70;;;;;;4996472;28;20022;-82
2021/06/15 07:58:39;;;;;;;4.57;0.80;;;20.60;92.40;;;;;;5017209;28;20026;-82
2021/06/15 08:01:07;;;;;;;4.13;0.55;;;20.80;91.90;;;;;;5028072;28;20010;-82
2021/06/15 08:03:33;;;;;;;1.63;0.55;;;20.90;91.80;;;;;;5010762;28;20390;-82
2021/06/15 08:05:59;;;;;;;4.90;0.80;;;21.00;91.40;;;;;;5012327;28;20037;-82
2021/06/15 08:08:26;;;;;;;3.17;0.60;;;21.20;91.20;;;;;;5013965;28;20030;-82
2021/06/15 08:14:08;;;;;;;2.55;0.60;;;21.50;91.00;;;;;;5009336;28;20502;-82
2021/06/15 08:16:46;;;;;;;2.75;0.90;;;21.70;90.70;;;;;;4977698;28;20019;-82
2021/06/15 08:19:24;;;;;;;;;;;;;;;;;;;;;
2021/06/15 08:22:00;;;;;;;;;;;;;;;;;;;;;
2021/06/15 08:24:29;;;;;;;2.20;0.60;;;21.70;90.50;;;;;;4994893;28;20026;-82
2021/06/15 08:27:07;;;;;;;2.38;0.50;;;21.80;90.40;;;;;;4995344;28;20023;-82
2021/06/15 08:29:47;;;;;;;3.28;0.80;;;21.70;90.20;;;;;;4977716;28;20034;-82
2021/06/15 08:32:27;;;;;;;;;;;;;;;;;;;;;
2021/06/15 08:35:00;;;;;;;2.60;0.70;;;21.70;90.10;;;;;;4995223;28;20033;-82
2021/06/15 08:38:27;;;;;;;3.50;0.40;;;21.80;90.00;;;;;;4977433;28;20026;-83
2021/06/15 08:41:47;;;;;;;;;;;;;;;;;;;;;
2021/06/15 08:48:00;;;;;;;;;;;;;;;;;;;;;
2021/06/15 08:51:19;;;;;;;1.67;0.60;;;21.80;89.00;;;;;;5006845;28;20034;-83
2021/06/15 08:54:34;;;;;;;1.80;0.57;;;21.80;88.70;;;;;;4974824;28;20391;-83
2021/06/15 08:57:38;;;;;;;;;;;;;;;;;;;;;
2021/06/15 09:03:30;;;;;;;0.93;0.32;;;22.60;87.10;;;;;;5003443;28;20145;-84
2021/06/15 09:09:07;;;;;;;3.60;0.50;;;23.00;86.30;;;;;;4993205;28;20036;-84
2021/06/15 09:11:55;;;;;;;2.30;0.55;;;23.00;86.00;;;;;;4996646;28;20308;-84
2021/06/15 09:15:37;;;;;;;;;;;;;;;;;;;;;
2021/06/15 09:17:59;;;;;;;0.85;0.30;;;23.10;85.30;;;;;;4981892;28;20038;-83
2021/06/15 09:20:47;;;;;;;;;;;;;;;;;;;;;
2021/06/15 09:23:20;;;;;;;1.95;0.50;;;23.40;85.40;;;;;;4994238;28;20045;-83
2021/06/15 09:26:12;;;;;;;2.28;0.65;;;23.60;84.50;;;;;;4977804;28;20199;-83
2021/06/15 09:33:09;;;;;;;;;;;;;;;;;;;;;
2021/06/15 09:36:22;;;;;;;;;;;;;;;;;;;;;
2021/06/15 09:38:58;;;;;;;2.80;0.60;;;25.50;82.90;;;;;;5017151;28;20040;-81
2021/06/15 09:41:44;;;;;;;2.40;0.70;;;26.60;81.30;;;;;;5017413;28;20018;-82
2021/06/15 09:44:25;;;;;;;1.95;0.60;;;27.30;78.70;;;;;;4983481;28;20081;-82
2021/06/15 09:47:49;;;;;;;;;;;;;;;;;;;;;
2021/06/15 09:53:59;;;;;;;3.20;0.80;;;28.60;74.80;;;;;;5035524;28;20124;-83
2021/06/15 10:00:39;;;;;;;;;;;;;;;;;;;;;
2021/06/15 10:03:24;;;;;;;;;;;;;;;;;;;;;
2021/06/15 10:06:21;;;;;;;;;;;;;;;;;;;;;
2021/06/15 10:09:23;;;;;;;;;;;;;;;;;;;;;
2021/06/15 10:11:51;;;;;;;3.40;0.67;;;30.50;66.10;;;;;;5010760;28;20042;-83
2021/06/15 10:14:52;;;;;;;;;;;;;;;;;;;;;
2021/06/15 10:17:33;;;;;;;2.55;0.50;;;30.90;64.20;;;;;;4917824;29;20032;-84
2021/06/15 10:20:25;;;;;;;1.40;0.50;;;31.20;63.20;;;;;;4917849;29;20040;-84
2021/06/15 10:27:29;;;;;;;1.23;0.40;;;31.80;60.70;;;;;;4836122;29;20037;-83
2021/06/15 10:30:28;;;;;;;;;;;;;;;;;;;;;
2021/06/15 10:33:48;;;;;;;1.55;0.43;;;31.10;60.20;;;;;;4833210;29;20030;-82
2021/06/15 10:36:56;;;;;;;1.48;0.43;;;31.20;59.70;;;;;;4886016;29;20069;-83
2021/06/15 10:40:36;;;;;;;;;;;;;;;;;;;;;
2021/06/15 10:46:31;;;;;;;2.30;0.50;;;32.30;57.50;;;;;;4907744;29;20489;-83
2021/06/15 10:52:14;;;;;;;2.03;0.55;;;32.20;55.90;;;;;;4901204;29;20250;-84
2021/06/15 10:57:31;;;;;;;1.65;0.50;;;32.50;55.30;;;;;;4905215;29;20103;-84
2021/06/15 11:00:27;;;;;;;1.88;0.52;;;32.50;54.50;;;;;;4898262;28;20110;-84
2021/06/15 11:03:26;;;;;;;2.78;0.50;;;32.80;54.40;;;;;;5004431;28;20052;-83
2021/06/15 11:06:27;;;;;;;2.28;0.60;;;33.20;53.90;;;;;;4997607;28;20038;-84
2021/06/15 11:12:45;;;;;;;2.75;0.73;;;33.00;53.40;;;;;;5002831;28;20032;-84
2021/06/15 11:15:25;;;;;;;2.55;0.63;;;33.20;53.30;;;;;;4989019;28;20053;-86
2021/06/15 11:18:24;;;;;;;;;;;;;;;;;;;;;
2021/06/15 11:21:42;;;;;;;2.97;0.85;;;33.30;52.30;;;;;;5010044;28;20034;-84
2021/06/15 11:24:34;;;;;;;3.22;0.80;;;33.40;52.50;;;;;;4984342;28;20034;-84
2021/06/15 11:31:17;;;;;;;;;;;;;;;;;;;;;
2021/06/15 11:34:46;;;;;;;2.72;0.55;;;33.30;52.00;;;;;;4997259;28;20398;-84
2021/06/15 11:37:45;;;;;;;1.48;0.50;;;33.90;51.40;;;;;;5010742;28;20026;-85
2021/06/15 11:40:27;;;;;;;;;;;;;;;;;;;;;
2021/06/15 11:43:19;;;;;;;;;;;;;;;;;;;;;
2021/06/15 11:48:44;;;;;;;2.40;0.60;;;34.10;50.20;;;;;;4999708;28;20378;-85
2021/06/15 11:51:26;;;;;;;2.58;0.50;;;34.20;49.80;;;;;;4997006;28;20045;-85
2021/06/15 11:53:58;;;;;;;2.60;0.60;;;34.20;49.80;;;;;;4982031;28;20177;-84
2021/06/15 11:56:31;;;;;;;2.50;0.70;;;34.50;49.90;;;;;;5014293;28;20102;-85
2021/06/15 11:59:32;;;;;;;3.28;0.70;;;34.50;49.70;;;;;;4996446;28;20129;-85
2021/06/15 12:02:15;;;;;;;2.25;0.60;;;34.60;49.40;;;;;;4977967;28;20036;-84
2021/06/15 12:05:08;;;;;;;2.97;0.73;;;35.00;49.10;;;;;;4995201;28;20049;-85
2021/06/15 12:08:21;;;;;;;2.00;0.60;;;35.10;48.60;;;;;;5005653;28;20029;-85
2021/06/15 12:10:58;;;;;;;2.22;0.80;;;34.80;48.50;;;;;;4993069;28;20042;-86
2021/06/15 12:13:41;;;;;;;;;;;;;;;;;;;;;
2021/06/15 12:20:36;;;;;;;;;;;;;;;;;;;;;
2021/06/15 12:27:01;;;;;;;2.10;0.70;;;34.20;49.00;;;;;;4941869;29;20031;-85
2021/06/15 12:30:37;;;;;;;;;;;;;;;;;;;;;
2021/06/15 12:33:14;;;;;;;3.38;0.90;;;34.20;49.20;;;;;;4937605;29;20062;-84
2021/06/15 12:36:06;;;;;;;;;;;;;;;;;;;;;
2021/06/15 12:42:53;;;;;;;3.63;0.70;;;34.50;48.60;;;;;;4893657;29;20027;-87
2021/06/15 12:52:48;;;;;;;;;;;;;;;;;;;;;
2021/06/15 12:55:35;;;;;;;;;;;;;;;;;;;;;
2021/06/15 12:58:35;;;;;;;4.70;0.93;;;34.50;49.00;;;;;;4929342;29;20035;-86
2021/06/15 13:07:40;;;;;;;1.83;0.60;;;34.30;49.00;;;;;;4993916;28;20054;-86
2021/06/15 13:10:44;;;;;;;2.95;0.70;;;34.30;48.90;;;;;;5012179;28;20037;-86
2021/06/15 13:13:28;;;;;;;1.60;0.70;;;34.40;49.20;;;;;;4952075;28;20045;-87
2021/06/15 13:16:19;;;;;;;2.80;0.77;;;34.30;49.20;;;;;;4971590;28;20109;-86
2021/06/15 13:19:23;;;;;;;;;;;;;;;;;;;;;
2021/06/15 13:22:42;;;;;;;;;;;;;;;;;;;;;
2021/06/15 13:28:31;;;;;;;1.63;0.50;;;33.30;49.50;;;;;;5006493;28;20021;-87
2021/06/15 13:31:14;;;;;;;;;;;;;;;;;;;;;
2021/06/15 13:34:11;;;;;;;4.03;0.70;;;34.00;49.00;;;;;;4999502;28;20022;-86
2021/06/15 13:37:10;;;;;;;;;;;;;;;;;;;;;
2021/06/15 13:40:06;;;;;;;2.55;0.70;;;34.60;47.90;;;;;;4997907;28;20049;-86
2021/06/15 13:43:18;;;;;;;2.70;0.88;;;34.70;47.90;;;;;;4990555;28;20515;-86
2021/06/15 13:45:50;;;;;;;5.95;1.08;;;34.60;47.60;;;;;;4991686;28;20569;-87
2021/06/15 13:48:52;;;;;;;3.42;0.80;;;34.50;47.50;;;;;;4996534;28;20522;-88
2021/06/15 13:52:33;;;;;;;;;;;;;;;;;;;;;
2021/06/15 13:55:33;;;;;;;;;;;;;;;;;;;;;
2021/06/15 13:58:06;;;;;;;2.38;0.60;;;34.50;48.20;;;;;;4979103;28;20026;-87
2021/06/15 14:01:37;;;;;;;;;;;;;;;;;;;;;
2021/06/15 14:10:55;;;;;;;2.40;0.70;;;34.20;48.10;;;;;;4954731;29;20078;-87
2021/06/15 14:14:47;;;;;;;;;;;;;;;;;;;;;
2021/06/15 14:17:26;;;;;;;;;;;;;;;;;;;;;
2021/06/15 14:20:10;;;;;;;2.28;0.60;;;34.50;48.10;;;;;;4985905;28;20048;-86
2021/06/15 14:23:43;;;;;;;;;;;;;;;;;;;;;
2021/06/15 14:29:32;;;;;;;;;;;;;;;;;;;;;
2021/06/15 14:32:51;;;;;;;;;;;;;;;;;;;;;
2021/06/15 14:39:02;;;;;;;2.13;0.60;;;31.30;50.00;;;;;;4960005;28;20022;-87
2021/06/15 14:41:38;;;;;;;;;;;;;;;;;;;;;
2021/06/15 14:47:55;;;;;;;;;;;;;;;;;;;;;
2021/06/15 14:54:08;;;;;;;3.67;0.60;;;30.60;50.40;;;;;;4993152;28;20051;-86
2021/06/15 14:57:04;;;;;;;4.35;0.75;;;30.60;50.50;;;;;;4997165;28;20025;-86
2021/06/15 15:00:22;;;;;;;5.32;1.08;;;30.60;50.50;;;;;;4947353;28;20522;-85
2021/06/15 15:03:32;;;;;;;3.50;0.75;;;30.30;51.10;;;;;;4992980;28;20125;-85
2021/06/15 15:06:49;;;;;;;4.25;1.15;;;30.00;51.50;;;;;;4989002;28;20120;-85
2021/06/15 15:13:39;;;;;;;;;;;;;;;;;;;;;
2021/06/15 15:16:14;;;;;;;3.28;1.00;;;29.40;52.20;;;;;;5018669;28;20030;-85
2021/06/15 15:19:01;;;;;;;;;;;;;;;;;;;;;
2021/06/15 15:21:36;;;;;;;5.07;1.00;;;29.50;52.20;;;;;;5032601;28;20064;-85
2021/06/15 15:24:33;;;;;;;;;;;;;;;;;;;;;
2021/06/15 15:27:43;;;;;;;4.32;0.80;;;29.80;51.70;;;;;;4999876;28;20018;-85
2021/06/15 15:33:57;;;;;;;4.57;0.70;;;30.10;51.60;;;;;;4935384;29;20035;-86
2021/06/15 15:36:26;;;;;;;2.63;0.68;;;30.00;51.60;;;;;;4926980;29;20143;-85
2021/06/15 15:39:10;;;;;;;2.50;0.70;;;30.00;51.80;;;;;;4919806;29;20047;-85
2021/06/15 15:44:55;;;;;;;3.30;0.80;;;30.00;52.40;;;;;;4916472;29;20032;-85
2021/06/15 15:50:43;;;;;;;3.33;0.95;;;30.00;51.50;;;;;;4935140;29;20040;-84
2021/06/15 15:53:09;;;;;;;6.07;1.08;;;29.80;51.60;;;;;;4928453;29;20040;-84
2021/06/15 15:56:26;;;;;;;;;;;;;;;;;;;;;
2021/06/15 16:02:19;;;;;;;3.88;0.73;;;29.50;51.80;;;;;;4973220;28;20033;-84
2021/06/15 16:04:58;;;;;;;2.25;0.57;;;29.50;51.80;;;;;;5014915;28;20043;-84
2021/06/15 16:07:34;;;;;;;;;;;;;;;;;;;;;
2021/06/15 16:10:09;;;;;;;2.60;1.10;;;29.30;51.80;;;;;;5002064;28;20379;-84
2021/06/15 16:13:26;;;;;;;2.80;0.80;;;29.20;51.70;;;;;;4993612;28;20023;-84
2021/06/15 16:16:02;;;;;;;;;;;;;;;;;;;;;
2021/06/15 16:18:59;;;;;;;3.45;0.82;;;29.10;52.10;;;;;;5019041;28;20021;-85
2021/06/15 16:25:37;;;;;;;;;;;;;;;;;;;;;
2021/06/15 16:28:35;;;;;;;2.45;1.08;;;29.20;54.60;;;;;;4989892;28;20389;-83
2021/06/15 16:34:37;;;;;;;4.50;1.02;;;28.80;53.40;;;;;;4991251;28;20034;-84
2021/06/15 16:37:31;;;;;;;2.92;0.80;;;28.30;53.20;;;;;;4984299;28;20124;-83
2021/06/15 16:40:33;;;;;;;2.72;0.85;;;28.20;53.70;;;;;;4986069;28;20034;-84
2021/06/15 16:43:36;;;;;;;4.80;1.08;;;27.90;53.10;;;;;;4983768;28;20068;-84
2021/06/15 16:49:17;;;;;;;;;;;;;;;;;;;;;
2021/06/15 16:52:03;;;;;;;4.18;1.10;;;27.50;53.60;;;;;;5004224;28;20060;-83
2021/06/15 16:54:57;;;;;;;7.80;1.40;;;27.40;54.00;;;;;;4989318;28;20574;-85
2021/06/15 16:58:09;;;;;;;6.03;1.58;;;27.20;54.10;;;;;;4978884;28;20034;-83
2021/06/15 17:00:49;;;;;;;;;;;;;;;;;;;;;
2021/06/15 17:04:14;;;;;;;3.92;1.20;;;27.00;54.50;;;;;;4989118;28;20050;-83
2021/06/15 17:07:06;;;;;;;2.65;0.93;;;26.90;54.50;;;;;;5005889;28;20089;-83
2021/06/15 17:10:40;;;;;;;;;;;;;;;;;;;;;
2021/06/15 17:13:16;;;;;;;3.83;1.60;;;26.80;54.90;;;;;;5015526;28;20160;-83
2021/06/15 17:16:18;;;;;;;;;;;;;;;;;;;;;
2021/06/15 17:18:57;;;;;;;;;;;;;;;;;;;;;